Impacts METAR Board
IDs:

KSLC - Salt Lake City Intl, UT, US

Updated at: 2100 UTC 20 Jun 2019
Potential Impact None Slight Moderate High
Time 20/09Z 20/10Z 20/11Z 20/12Z 20/13Z 20/14Z 20/15Z 20/16Z 20/17Z 20/18Z 20/19Z 20/20Z 20/21Z
Temp64 63 62 60 61 64 67 69 73 77 80 80 81
Dewpt40 42 46 43 42 41 40 37 29 38 42 42 44
Altim29.88 29.88 29.88 29.88 29.87 29.87 29.85 29.82 29.80 29.77 29.74 29.71 29.68
VIS10 10 10 10 10 10 10 10 10 10 10 10 10
CIG200 200 -- -- 120 -- -- -- -- -- -- 110 110
CoverBKNBKNSCTFEWBKNSCTSCTSCTSCTSCTSCTBKNBKN
FltCatVFRVFRVFRVFRVFRVFRVFRVFRVFRVFRVFRVFRVFR
WX-------------------------RA
WDir36026001301301301300000270280
WSpd7 3 0 6 3 7 4 3 3 0 4 9 14
WGst-- -- -- -- -- -- -- -- -- -- -- 18 --
Raw hourly METARs
KSLC 200854Z 36007KT 10SM FEW120 BKN200 18/04 A2988 RMK AO2 SLP064 T01780044 58001 $
KSLC 200954Z 26003KT 10SM FEW120 BKN200 17/06 A2988 RMK AO2 SLP065 T01720056 $
KSLC 201054Z 00000KT 10SM SCT200 17/08 A2988 RMK AO2 SLP065 T01670078 $
KSLC 201154Z 13006KT 10SM FEW110 FEW200 16/06 A2988 RMK AO2 SLP067 T01560061 10211 20150 51001 $
KSLC 201254Z 13003KT 10SM BKN120 16/06 A2987 RMK AO2 SLP064 T01610056 $
KSLC 201354Z 13007KT 10SM SCT110 SCT200 18/05 A2987 RMK AO2 SLP061 T01780050 $
KSLC 201454Z 13004KT 10SM FEW080 SCT110 19/04 A2985 RMK AO2 SLP053 T01940044 58009 $
KSLC 201554Z VRB03KT 10SM FEW080 SCT110 21/03 A2982 RMK AO2 SLP047 ACC SE-S AND DSNT SW T02060028 $
KSLC 201654Z VRB03KT 10SM SCT110 23/M02 A2980 RMK AO2 SLP038 ACC DSNT S T02281017 $
KSLC 201754Z 00000KT 10SM SCT100 SCT120 25/03 A2977 RMK AO2 SLP027 ACC S AND DSNT SE ACSL DSNT NW T02500033 10250 20144 56023 $
KSLC 201854Z VRB04KT 10SM FEW085 SCT110 SCT130 27/06 A2974 RMK AO2 SLP015 TCU DSNT NE ACC DSNT SE-S ACSL DSNT NW-NE T02670056 $
KSLC 201954Z COR 27009G18 220V290 10SM FEW085TCU BKN110 BKN140 27/06 A2971 RMK AO2 SLP005 TCU OHD AND E-SE ACSL DSNT NE T02670056 $
KSLC 202054Z 28014KT 10SM -RA SCT075 BKN110 BKN200 27/07 A2968 RMK AO2 RAB30 SLP997 VIRGA CB DSNT SW-NW P0001 60001 T02720067 56028 $



Page loaded:  21:12 UTC  |   02:12 PM Pacific  |   03:12 PM Mountain  |   04:12 PM Central  |   05:12 PM Eastern

 

ADVISORIES

FORECASTS

FORECASTS

OBSERVATIONS

USER TOOLS

ABOUT US